createdAt,value
2022-11-08T00:03:05.821Z,5.00
2022-11-08T00:08:25.789Z,5.73
2022-11-08T00:13:45.470Z,8.43
2022-11-08T00:18:46.847Z,8.23
2022-11-08T00:23:48.195Z,5.20
2022-11-08T00:28:49.427Z,7.60
2022-11-08T00:33:50.689Z,8.50
2022-11-08T00:38:51.917Z,6.35
2022-11-08T00:43:53.152Z,5.47
2022-11-08T00:48:54.406Z,5.77
2022-11-08T00:53:55.644Z,5.45
2022-11-08T00:58:57.747Z,5.30
2022-11-08T01:03:59.008Z,5.03
2022-11-08T01:09:00.421Z,5.60
2022-11-08T01:14:02.191Z,4.80
2022-11-08T01:19:03.615Z,5.82
2022-11-08T01:24:05.220Z,5.27
2022-11-08T01:29:06.447Z,6.35
2022-11-08T01:34:07.715Z,5.55
2022-11-08T01:39:08.980Z,5.93
2022-11-08T01:44:14.774Z,5.03
2022-11-08T01:49:18.944Z,4.23
2022-11-08T01:54:30.070Z,3.80
2022-11-08T01:59:32.736Z,4.68
2022-11-08T02:04:34.023Z,4.20
2022-11-08T02:09:36.172Z,3.65
2022-11-08T02:14:37.887Z,4.17
2022-11-08T02:19:49.673Z,4.65
2022-11-08T02:24:50.969Z,5.88
2022-11-08T02:29:52.883Z,5.77
2022-11-08T02:34:54.139Z,7.70
2022-11-08T02:39:55.387Z,6.43
2022-11-08T02:44:56.615Z,3.92
2022-11-08T02:49:57.839Z,3.80
2022-11-08T02:54:59.113Z,4.47
2022-11-08T03:00:00.340Z,4.25
2022-11-08T03:05:01.648Z,3.93
2022-11-08T03:10:02.937Z,3.60
2022-11-08T03:15:05.086Z,3.80
2022-11-08T03:20:06.838Z,3.40
2022-11-08T03:25:08.333Z,3.88
2022-11-08T03:30:09.690Z,3.67
2022-11-08T03:35:10.971Z,3.15
2022-11-08T03:40:12.470Z,2.90
2022-11-08T03:45:13.819Z,3.00
2022-11-08T03:50:15.737Z,4.35
2022-11-08T03:55:17.802Z,4.40
2022-11-08T04:00:20.873Z,5.45
2022-11-08T04:05:22.253Z,7.20
2022-11-08T04:10:23.508Z,4.53
2022-11-08T04:15:25.064Z,5.18
2022-11-08T04:20:44.851Z,3.20
2022-11-08T04:25:53.094Z,4.10
2022-11-08T04:30:58.210Z,3.08
2022-11-08T04:36:04.214Z,4.10
2022-11-08T04:41:07.807Z,4.40
2022-11-08T04:46:10.483Z,5.70
2022-11-08T04:51:15.773Z,5.55
2022-11-08T04:56:19.447Z,3.30
2022-11-08T05:01:21.987Z,2.28
2022-11-08T05:06:24.845Z,2.20
2022-11-08T05:11:26.847Z,2.20
2022-11-08T05:16:29.425Z,2.05
2022-11-08T05:21:49.048Z,2.08
2022-11-08T05:26:50.351Z,3.95
2022-11-08T05:31:51.576Z,4.18
2022-11-08T05:36:52.778Z,3.57
2022-11-08T05:41:54.004Z,3.30
2022-11-08T05:46:55.236Z,2.00
2022-11-08T05:51:56.484Z,2.80
2022-11-08T05:56:57.765Z,3.67
2022-11-08T06:01:59.095Z,2.97
2022-11-08T06:07:00.397Z,3.70
2022-11-08T06:12:01.729Z,2.80
2022-11-08T06:17:03.066Z,2.45
2022-11-08T06:22:04.396Z,5.00
2022-11-08T06:27:05.658Z,2.30
2022-11-08T06:32:06.887Z,2.75
2022-11-08T06:37:08.568Z,2.50
2022-11-08T06:42:09.893Z,3.45
2022-11-08T06:47:11.175Z,3.30
2022-11-08T06:52:12.407Z,3.40
2022-11-08T06:57:13.751Z,3.55
2022-11-08T07:02:15.209Z,3.00
2022-11-08T07:07:16.542Z,3.42
2022-11-08T07:12:17.780Z,3.38
2022-11-08T07:17:18.995Z,3.70
2022-11-08T07:22:20.225Z,3.20
2022-11-08T07:27:21.589Z,4.95
2022-11-08T07:32:22.884Z,4.75
2022-11-08T07:37:24.139Z,4.30
2022-11-08T07:42:30.727Z,4.93
2022-11-08T07:47:45.020Z,3.42
2022-11-08T07:52:49.231Z,3.60
2022-11-08T07:57:50.461Z,3.83
2022-11-08T08:02:56.587Z,3.20
2022-11-08T08:07:58.660Z,3.13
2022-11-08T08:13:00.022Z,2.60
2022-11-08T08:18:02.254Z,3.10
2022-11-08T08:23:03.496Z,4.40
2022-11-08T08:28:05.901Z,3.40
2022-11-08T08:33:27.250Z,2.77
2022-11-08T08:38:30.255Z,2.60
2022-11-08T08:43:32.503Z,2.40
2022-11-08T08:48:33.948Z,2.73
2022-11-08T08:53:35.208Z,2.25
2022-11-08T08:58:36.602Z,2.90
2022-11-08T09:03:37.843Z,2.47
2022-11-08T09:08:39.071Z,2.30
2022-11-08T09:13:40.316Z,3.13
2022-11-08T09:18:41.656Z,6.30
2022-11-08T09:23:43.004Z,4.83
2022-11-08T09:28:44.234Z,5.20
2022-11-08T09:33:49.083Z,4.47
2022-11-08T09:38:56.943Z,4.97
2022-11-08T09:44:13.344Z,3.83
2022-11-08T09:49:17.680Z,3.47
2022-11-08T09:54:27.823Z,2.70
2022-11-08T09:59:34.973Z,3.45
2022-11-08T10:04:36.740Z,3.60
2022-11-08T10:09:37.990Z,3.90
2022-11-08T10:15:00.850Z,3.33
2022-11-08T10:20:18.411Z,2.50
2022-11-08T10:25:38.553Z,2.70
2022-11-08T10:30:41.233Z,2.20
2022-11-08T10:35:57.798Z,2.40
2022-11-08T10:41:13.453Z,1.80
2022-11-08T10:46:24.135Z,1.50
2022-11-08T10:51:25.476Z,1.50
2022-11-08T10:56:26.727Z,2.88
2022-11-08T11:01:28.021Z,1.70
2022-11-08T11:06:30.657Z,1.70
2022-11-08T11:11:31.984Z,1.50
2022-11-08T11:16:33.549Z,1.40
2022-11-08T11:21:36.328Z,2.30
2022-11-08T11:26:42.960Z,1.50
2022-11-08T11:31:45.914Z,1.60
2022-11-08T11:36:53.356Z,1.60
2022-11-08T11:42:31.217Z,1.50
2022-11-08T11:47:33.245Z,2.33
2022-11-08T11:52:34.624Z,1.80
2022-11-08T11:57:41.827Z,1.60
2022-11-08T12:02:46.073Z,1.50
2022-11-08T12:08:06.115Z,2.43
2022-11-08T12:13:18.086Z,1.98
2022-11-08T12:18:41.128Z,2.53
2022-11-08T12:23:40.484Z,4.00
2022-11-08T12:28:51.599Z,3.58
2022-11-08T12:34:05.307Z,2.47
2022-11-08T12:39:25.123Z,2.63
2022-11-08T12:44:39.013Z,3.30
2022-11-08T12:49:48.833Z,2.88
2022-11-08T12:54:53.519Z,2.10
2022-11-08T13:00:00.991Z,3.65
2022-11-08T13:05:08.427Z,2.85
2022-11-08T13:10:18.325Z,2.63
2022-11-08T13:15:21.268Z,3.67
2022-11-08T13:20:37.527Z,4.00
2022-11-08T13:25:39.228Z,4.77
2022-11-08T13:30:41.960Z,4.90
2022-11-08T13:35:59.377Z,4.28
2022-11-08T13:41:06.761Z,2.10
2022-11-08T13:46:20.329Z,3.97
2022-11-08T13:51:26.096Z,2.17
2022-11-08T13:56:41.241Z,2.53
2022-11-08T14:02:05.772Z,2.28
2022-11-08T14:07:25.394Z,2.60
2022-11-08T14:12:48.875Z,2.30
2022-11-08T14:18:16.299Z,2.75
2022-11-08T14:23:21.150Z,4.13
2022-11-08T14:28:24.020Z,5.23
2022-11-08T14:33:26.617Z,5.22
2022-11-08T14:38:28.759Z,4.80
2022-11-08T14:43:30.305Z,4.77
2022-11-08T14:48:31.623Z,6.28
2022-11-08T14:53:34.296Z,3.80
2022-11-08T14:58:35.615Z,3.70
2022-11-08T15:03:37.981Z,4.05
2022-11-08T15:08:52.545Z,4.53
2022-11-08T15:14:20.213Z,2.67
2022-11-08T15:19:39.943Z,3.15
2022-11-08T15:24:43.132Z,2.28
2022-11-08T15:29:48.159Z,4.70
2022-11-08T15:34:53.155Z,4.88
2022-11-08T15:39:54.741Z,3.90
2022-11-08T15:45:01.994Z,4.50
2022-11-08T15:50:08.965Z,4.30
2022-11-08T15:55:14.683Z,4.47
2022-11-08T16:00:22.224Z,3.90
2022-11-08T16:05:24.599Z,5.03
2022-11-08T16:10:36.466Z,5.13
2022-11-08T16:15:37.860Z,4.20
2022-11-08T16:20:39.120Z,5.45
2022-11-08T16:25:46.049Z,5.80
2022-11-08T16:30:47.638Z,5.88
2022-11-08T16:35:49.301Z,5.57
2022-11-08T16:40:50.642Z,7.43
2022-11-08T16:46:04.841Z,6.57
2022-11-08T16:51:11.831Z,3.97
2022-11-08T16:56:13.448Z,6.13
2022-11-08T17:01:17.307Z,7.60
2022-11-08T17:06:18.712Z,7.20
2022-11-08T17:11:21.156Z,8.18
2022-11-08T17:16:22.423Z,8.33
2022-11-08T17:26:45.582Z,9.23
2022-11-08T17:31:47.203Z,11.20
2022-11-08T17:36:48.534Z,10.77
2022-11-08T17:41:49.774Z,11.38
2022-11-08T17:46:51.005Z,10.70
2022-11-08T17:51:52.226Z,13.23
2022-11-08T17:56:53.695Z,10.63
2022-11-08T18:01:55.306Z,10.73
2022-11-08T18:06:56.737Z,11.23
2022-11-08T18:11:58.061Z,10.40
2022-11-08T18:16:59.799Z,10.43
2022-11-08T18:22:01.349Z,10.02
2022-11-08T18:27:02.624Z,10.10
2022-11-08T18:32:04.060Z,12.95
2022-11-08T18:37:05.298Z,12.43
2022-11-08T18:42:06.588Z,11.80
2022-11-08T18:47:07.862Z,10.65
2022-11-08T18:52:09.149Z,11.47
2022-11-08T18:57:10.490Z,10.40
2022-11-08T19:02:12.323Z,11.97
2022-11-08T19:07:13.687Z,10.95
2022-11-08T19:12:15.098Z,10.68
2022-11-08T19:17:16.364Z,9.70
2022-11-08T19:22:17.599Z,12.57
2022-11-08T19:27:18.942Z,14.30
2022-11-08T19:32:20.938Z,14.43
2022-11-08T19:37:22.466Z,16.77
2022-11-08T19:42:23.738Z,13.50
2022-11-08T19:47:24.984Z,19.92
2022-11-08T19:52:26.234Z,14.97
2022-11-08T19:57:29.640Z,15.63
2022-11-08T20:02:30.920Z,15.07
2022-11-08T20:07:32.171Z,13.40
2022-11-08T20:12:33.434Z,13.40
2022-11-08T20:17:34.804Z,14.03
2022-11-08T20:22:36.044Z,12.63
2022-11-08T20:27:37.324Z,12.20
2022-11-08T20:32:38.579Z,14.50
2022-11-08T20:37:39.850Z,13.10
2022-11-08T20:42:41.130Z,12.33
2022-11-08T20:47:42.374Z,12.57
2022-11-08T20:52:43.711Z,13.40
2022-11-08T20:57:45.046Z,13.20
2022-11-08T21:02:46.299Z,13.70
2022-11-08T21:08:55.972Z,13.30
2022-11-08T21:13:09.256Z,12.93
2022-11-08T21:18:10.894Z,13.52
2022-11-08T21:23:12.289Z,11.90
2022-11-08T21:28:13.573Z,13.90
2022-11-08T21:33:14.820Z,12.00
2022-11-08T21:38:16.465Z,11.45
2022-11-08T21:43:17.989Z,11.35
2022-11-08T21:48:19.706Z,8.97
2022-11-08T21:53:21.168Z,9.93
2022-11-08T21:58:22.417Z,9.63
2022-11-08T22:03:23.669Z,8.52
2022-11-08T22:08:24.912Z,8.45
2022-11-08T22:13:26.168Z,8.17
2022-11-08T22:18:43.602Z,8.60
2022-11-08T22:23:48.698Z,8.57
2022-11-08T22:28:49.962Z,8.10
2022-11-08T22:33:51.210Z,9.30
2022-11-08T22:38:52.522Z,7.67
2022-11-08T22:43:53.868Z,8.32
2022-11-08T22:48:55.118Z,9.33
2022-11-08T22:53:56.350Z,8.20
2022-11-08T22:58:57.761Z,7.93
2022-11-08T23:03:59.087Z,9.03
2022-11-08T23:09:00.519Z,7.40
2022-11-08T23:14:20.455Z,7.03
2022-11-08T23:19:41.811Z,6.43
2022-11-08T23:24:43.258Z,6.95
2022-11-08T23:30:03.684Z,7.03
2022-11-08T23:35:04.955Z,7.03
2022-11-08T23:40:25.952Z,6.87
2022-11-08T23:45:27.222Z,6.20
2022-11-08T23:50:28.516Z,6.25
2022-11-08T23:55:29.767Z,5.60
